Bookmark and Share
Track history (hours):
 

Celik 1

Last reported at 2014-Apr-18 05:33 UTC. Time now 2014-Apr-18 18:14 UTC.
Position N 47°08' W 002°25'.

Length 121 m; draft 4.5 m.

Type: Cargo ship. MMSI: 249114000.

NotesDate/timePositionNaut miles runAvg speedWind from/ knotsBaromVisibWave heightAir tempDewpointWater temp
2014-Apr-18 05:33N 47°08' W 002°25'0 0.0
2014-Apr-18 04:03N 47°08' W 002°25'0 0.0
2014-Apr-18 03:21N 47°08' W 002°25'0 0.0
2014-Apr-18 02:21N 47°08' W 002°25'0 0.0
2014-Apr-17 23:30N 47°08' W 002°25'0 0.0
2014-Apr-17 22:33N 47°08' W 002°25'0 0.0
2014-Apr-17 21:30N 47°08' W 002°25'0 0.0
2014-Apr-17 20:30N 47°08' W 002°25'0 0.0
2014-Apr-17 19:33N 47°08' W 002°25'0 0.0
2014-Apr-17 18:33N 47°08' W 002°25'0 0.0
2014-Apr-17 17:33N 47°08' W 002°25'0 0.1
2014-Apr-17 16:30N 47°08' W 002°25'0 0.0
2014-Apr-17 09:09N 47°08' W 002°25'0 0.0
2014-Apr-17 08:30N 47°08' W 002°25'0 0.0
2014-Apr-17 07:24N 47°08' W 002°25'0 0.0
2014-Apr-17 06:30N 47°08' W 002°25'0 0.0
2014-Apr-17 05:27N 47°08' W 002°25'0 0.1
2014-Apr-17 04:30N 47°08' W 002°25'0 0.0
2014-Apr-17 03:33N 47°08' W 002°25'0 0.0
2014-Apr-17 02:33N 47°08' W 002°25'0 0.0
2014-Apr-17 01:18N 47°08' W 002°25'0 0.1
2014-Apr-16 23:21N 47°08' W 002°25'0 0.0
2014-Apr-16 22:27N 47°08' W 002°25'  
2014-Apr-13 21:05N 47°06' W 002°27'0 0.0
2014-Apr-13 20:26N 47°06' W 002°27'0 0.0
2014-Apr-12 20:17N 47°06' W 002°27'0 0.0
2014-Apr-12 19:32N 47°06' W 002°27'0 0.0
2014-Apr-12 18:32N 47°06' W 002°27'0 0.1
2014-Apr-12 17:27N 47°06' W 002°27'4 4.8
2014-Apr-12 16:33N 47°03' W 002°30'  
2014-Apr-09 08:23N 37°57' W 009°37'8 9.9
2014-Apr-09 07:33N 37°49' W 009°35'1010.1
2014-Apr-09 06:34N 37°39' W 009°32'10 9.7
2014-Apr-09 05:34N 37°30' W 009°29'10 9.5
2014-Apr-09 04:33N 37°21' W 009°27'11 9.7
2014-Apr-09 03:26N 37°10' W 009°23'52 8.7
2014-Apr-08 21:32N 36°36' W 008°35'9 9.7
2014-Apr-08 20:33N 36°33' W 008°24'1010.0
2014-Apr-08 19:33N 36°29' W 008°12'1010.0
2014-Apr-08 18:33N 36°26' W 008°01'12 9.9
2014-Apr-08 17:22N 36°22' W 007°47'8 9.8
2014-Apr-08 16:33N 36°20' W 007°37'99 9.6
2014-Apr-08 06:17N 35°58' W 005°38'7 9.3
2014-Apr-08 05:33N 35°59' W 005°30'  

Dump ship's entire track history

sailing weather and tide predictions

Celik 1 — 9HKY9 — position and weather